sensor_id;sensor_type;location;lat;lon;timestamp;P1;durP1;ratioP1;P2;durP2;ratioP2
21334;SDS011;69435;52.670;13.544;2023-08-21T00:00:05;12.37;;;10.43;;
21334;SDS011;69435;52.670;13.544;2023-08-21T00:02:32;13.17;;;10.77;;
21334;SDS011;69435;52.670;13.544;2023-08-21T00:04:58;11.87;;;10.57;;
21334;SDS011;69435;52.670;13.544;2023-08-21T00:07:24;12.03;;;10.40;;
21334;SDS011;69435;52.670;13.544;2023-08-21T00:09:49;12.17;;;9.87;;
21334;SDS011;69435;52.670;13.544;2023-08-21T00:12:16;10.63;;;9.63;;
21334;SDS011;69435;52.670;13.544;2023-08-21T00:14:42;12.13;;;10.93;;
21334;SDS011;69435;52.670;13.544;2023-08-21T00:17:07;12.20;;;11.00;;
21334;SDS011;69435;52.670;13.544;2023-08-21T00:19:33;13.87;;;9.47;;
21334;SDS011;69435;52.670;13.544;2023-08-21T00:21:59;13.53;;;11.20;;
21334;SDS011;69435;52.670;13.544;2023-08-21T00:24:25;11.13;;;10.03;;
21334;SDS011;69435;52.670;13.544;2023-08-21T00:26:51;13.70;;;10.50;;
21334;SDS011;69435;52.670;13.544;2023-08-21T00:29:17;12.13;;;10.43;;
21334;SDS011;69435;52.670;13.544;2023-08-21T00:31:43;11.07;;;9.70;;
21334;SDS011;69435;52.670;13.544;2023-08-21T00:34:08;11.50;;;10.20;;
21334;SDS011;69435;52.670;13.544;2023-08-21T00:36:34;14.77;;;11.13;;
21334;SDS011;69435;52.670;13.544;2023-08-21T00:39:00;11.10;;;9.87;;
21334;SDS011;69435;52.670;13.544;2023-08-21T00:41:26;12.97;;;10.37;;
21334;SDS011;69435;52.670;13.544;2023-08-21T00:43:51;11.87;;;10.57;;
21334;SDS011;69435;52.670;13.544;2023-08-21T00:46:17;11.33;;;10.10;;
21334;SDS011;69435;52.670;13.544;2023-08-21T00:48:43;11.20;;;10.10;;
21334;SDS011;69435;52.670;13.544;2023-08-21T00:51:09;12.37;;;9.57;;
21334;SDS011;69435;52.670;13.544;2023-08-21T00:53:38;10.57;;;9.47;;
21334;SDS011;69435;52.670;13.544;2023-08-21T00:56:04;11.37;;;9.83;;
21334;SDS011;69435;52.670;13.544;2023-08-21T00:58:30;12.30;;;10.07;;
21334;SDS011;69435;52.670;13.544;2023-08-21T01:00:56;11.80;;;10.57;;
21334;SDS011;69435;52.670;13.544;2023-08-21T01:03:23;13.50;;;11.50;;
21334;SDS011;69435;52.670;13.544;2023-08-21T01:05:49;14.90;;;10.77;;
21334;SDS011;69435;52.670;13.544;2023-08-21T01:13:54;15.53;;;11.07;;
21334;SDS011;69435;52.670;13.544;2023-08-21T01:16:55;14.07;;;10.83;;
21334;SDS011;69435;52.670;13.544;2023-08-21T01:19:37;14.40;;;10.60;;
21334;SDS011;69435;52.670;13.544;2023-08-21T01:22:06;14.17;;;11.53;;
21334;SDS011;69435;52.670;13.544;2023-08-21T01:24:32;13.57;;;11.90;;
21334;SDS011;69435;52.670;13.544;2023-08-21T01:26:58;17.60;;;12.37;;
21334;SDS011;69435;52.670;13.544;2023-08-21T01:29:24;15.97;;;11.83;;
21334;SDS011;69435;52.670;13.544;2023-08-21T01:31:52;16.20;;;12.30;;
21334;SDS011;69435;52.670;13.544;2023-08-21T01:34:44;12.40;;;11.10;;
21334;SDS011;69435;52.670;13.544;2023-08-21T01:37:13;20.03;;;11.83;;
21334;SDS011;69435;52.670;13.544;2023-08-21T01:39:41;16.47;;;12.20;;
21334;SDS011;69435;52.670;13.544;2023-08-21T01:42:07;13.37;;;11.83;;
21334;SDS011;69435;52.670;13.544;2023-08-21T01:44:32;15.80;;;11.50;;
21334;SDS011;69435;52.670;13.544;2023-08-21T01:46:58;15.10;;;12.13;;
21334;SDS011;69435;52.670;13.544;2023-08-21T01:49:24;14.10;;;11.70;;
21334;SDS011;69435;52.670;13.544;2023-08-21T01:51:50;13.13;;;11.73;;
21334;SDS011;69435;52.670;13.544;2023-08-21T01:54:15;16.77;;;11.63;;
21334;SDS011;69435;52.670;13.544;2023-08-21T01:56:41;17.00;;;11.43;;
21334;SDS011;69435;52.670;13.544;2023-08-21T01:59:07;19.90;;;12.33;;
21334;SDS011;69435;52.670;13.544;2023-08-21T02:01:32;14.07;;;11.50;;
21334;SDS011;69435;52.670;13.544;2023-08-21T02:03:58;14.33;;;11.13;;
21334;SDS011;69435;52.670;13.544;2023-08-21T02:06:24;14.00;;;12.07;;
21334;SDS011;69435;52.670;13.544;2023-08-21T02:08:50;12.50;;;11.13;;
21334;SDS011;69435;52.670;13.544;2023-08-21T02:11:16;16.20;;;11.83;;
21334;SDS011;69435;52.670;13.544;2023-08-21T02:13:41;13.63;;;11.53;;
21334;SDS011;69435;52.670;13.544;2023-08-21T02:16:07;12.57;;;11.23;;
21334;SDS011;69435;52.670;13.544;2023-08-21T02:18:33;13.80;;;11.00;;
21334;SDS011;69435;52.670;13.544;2023-08-21T02:21:02;11.67;;;10.47;;
21334;SDS011;69435;52.670;13.544;2023-08-21T02:23:28;16.47;;;11.17;;
21334;SDS011;69435;52.670;13.544;2023-08-21T02:25:56;11.37;;;10.37;;
21334;SDS011;69435;52.670;13.544;2023-08-21T02:28:23;11.57;;;10.47;;
21334;SDS011;69435;52.670;13.544;2023-08-21T02:30:49;11.17;;;10.07;;
21334;SDS011;69435;52.670;13.544;2023-08-21T02:33:14;11.67;;;10.37;;
21334;SDS011;69435;52.670;13.544;2023-08-21T02:35:40;10.77;;;9.77;;
21334;SDS011;69435;52.670;13.544;2023-08-21T02:38:06;10.13;;;9.23;;
21334;SDS011;69435;52.670;13.544;2023-08-21T02:40:32;11.53;;;9.57;;
21334;SDS011;69435;52.670;13.544;2023-08-21T02:42:57;12.10;;;10.87;;
21334;SDS011;69435;52.670;13.544;2023-08-21T02:45:23;12.57;;;9.53;;
21334;SDS011;69435;52.670;13.544;2023-08-21T02:47:49;11.40;;;9.83;;
21334;SDS011;69435;52.670;13.544;2023-08-21T02:50:15;11.40;;;9.40;;
21334;SDS011;69435;52.670;13.544;2023-08-21T02:52:40;16.87;;;9.70;;
21334;SDS011;69435;52.670;13.544;2023-08-21T02:55:06;11.03;;;10.00;;
21334;SDS011;69435;52.670;13.544;2023-08-21T02:57:32;11.27;;;9.77;;
21334;SDS011;69435;52.670;13.544;2023-08-21T02:59:58;10.67;;;9.53;;
21334;SDS011;69435;52.670;13.544;2023-08-21T03:02:24;11.57;;;10.30;;
21334;SDS011;69435;52.670;13.544;2023-08-21T03:04:50;11.30;;;9.50;;
21334;SDS011;69435;52.670;13.544;2023-08-21T03:07:16;11.30;;;10.30;;
21334;SDS011;69435;52.670;13.544;2023-08-21T03:09:44;10.97;;;9.87;;
21334;SDS011;69435;52.670;13.544;2023-08-21T03:12:14;11.47;;;10.33;;
21334;SDS011;69435;52.670;13.544;2023-08-21T03:14:40;10.53;;;9.53;;
21334;SDS011;69435;52.670;13.544;2023-08-21T03:17:06;11.27;;;10.17;;
21334;SDS011;69435;52.670;13.544;2023-08-21T03:19:32;11.03;;;9.93;;
21334;SDS011;69435;52.670;13.544;2023-08-21T03:21:58;12.83;;;9.37;;
21334;SDS011;69435;52.670;13.544;2023-08-21T03:24:24;13.47;;;9.93;;
21334;SDS011;69435;52.670;13.544;2023-08-21T03:26:50;10.50;;;9.50;;
21334;SDS011;69435;52.670;13.544;2023-08-21T03:29:16;11.33;;;10.17;;
21334;SDS011;69435;52.670;13.544;2023-08-21T03:31:41;10.10;;;9.10;;
21334;SDS011;69435;52.670;13.544;2023-08-21T03:34:07;11.00;;;9.83;;
21334;SDS011;69435;52.670;13.544;2023-08-21T03:36:33;10.73;;;9.63;;
21334;SDS011;69435;52.670;13.544;2023-08-21T03:39:02;12.37;;;9.20;;
21334;SDS011;69435;52.670;13.544;2023-08-21T03:41:31;11.73;;;9.57;;
21334;SDS011;69435;52.670;13.544;2023-08-21T03:43:57;10.50;;;9.53;;
21334;SDS011;69435;52.670;13.544;2023-08-21T03:46:23;11.10;;;9.67;;
21334;SDS011;69435;52.670;13.544;2023-08-21T03:48:49;10.10;;;9.20;;
21334;SDS011;69435;52.670;13.544;2023-08-21T03:51:16;10.10;;;9.20;;
21334;SDS011;69435;52.670;13.544;2023-08-21T03:53:41;11.00;;;9.80;;
21334;SDS011;69435;52.670;13.544;2023-08-21T03:56:07;11.93;;;10.37;;
21334;SDS011;69435;52.670;13.544;2023-08-21T03:58:33;10.70;;;9.70;;
21334;SDS011;69435;52.670;13.544;2023-08-21T04:01:00;12.07;;;10.60;;
21334;SDS011;69435;52.670;13.544;2023-08-21T04:03:26;12.37;;;10.10;;
21334;SDS011;69435;52.670;13.544;2023-08-21T04:05:55;10.63;;;9.53;;
21334;SDS011;69435;52.670;13.544;2023-08-21T04:08:24;9.33;;;8.47;;
21334;SDS011;69435;52.670;13.544;2023-08-21T04:10:50;12.87;;;9.80;;
21334;SDS011;69435;52.670;13.544;2023-08-21T04:13:17;29.97;;;11.03;;
21334;SDS011;69435;52.670;13.544;2023-08-21T04:15:44;11.93;;;10.67;;
21334;SDS011;69435;52.670;13.544;2023-08-21T04:18:11;11.07;;;9.93;;
21334;SDS011;69435;52.670;13.544;2023-08-21T04:20:37;12.77;;;10.37;;
21334;SDS011;69435;52.670;13.544;2023-08-21T04:23:02;11.13;;;9.77;;
21334;SDS011;69435;52.670;13.544;2023-08-21T04:25:28;14.57;;;10.20;;
21334;SDS011;69435;52.670;13.544;2023-08-21T04:27:54;12.13;;;10.90;;
21334;SDS011;69435;52.670;13.544;2023-08-21T04:30:20;10.83;;;9.83;;
21334;SDS011;69435;52.670;13.544;2023-08-21T04:32:46;11.00;;;9.90;;
21334;SDS011;69435;52.670;13.544;2023-08-21T04:35:12;11.67;;;10.00;;
21334;SDS011;69435;52.670;13.544;2023-08-21T04:37:42;11.13;;;10.23;;
21334;SDS011;69435;52.670;13.544;2023-08-21T04:40:11;11.57;;;10.27;;
21334;SDS011;69435;52.670;13.544;2023-08-21T04:42:37;13.00;;;10.83;;
21334;SDS011;69435;52.670;13.544;2023-08-21T04:45:03;12.40;;;11.23;;
21334;SDS011;69435;52.670;13.544;2023-08-21T04:47:30;12.40;;;11.17;;
21334;SDS011;69435;52.670;13.544;2023-08-21T04:49:57;13.20;;;11.63;;
21334;SDS011;69435;52.670;13.544;2023-08-21T04:52:23;12.83;;;11.63;;
21334;SDS011;69435;52.670;13.544;2023-08-21T04:54:50;12.27;;;10.30;;
21334;SDS011;69435;52.670;13.544;2023-08-21T04:57:16;11.83;;;10.70;;
21334;SDS011;69435;52.670;13.544;2023-08-21T04:59:43;11.30;;;10.30;;
21334;SDS011;69435;52.670;13.544;2023-08-21T05:02:09;11.80;;;10.30;;
21334;SDS011;69435;52.670;13.544;2023-08-21T05:04:35;12.67;;;10.50;;
21334;SDS011;69435;52.670;13.544;2023-08-21T05:07:02;11.30;;;10.30;;
21334;SDS011;69435;52.670;13.544;2023-08-21T05:09:29;13.43;;;10.10;;
21334;SDS011;69435;52.670;13.544;2023-08-21T05:11:55;12.13;;;10.50;;
21334;SDS011;69435;52.670;13.544;2023-08-21T05:14:22;12.03;;;9.67;;
21334;SDS011;69435;52.670;13.544;2023-08-21T05:16:48;11.13;;;10.03;;
21334;SDS011;69435;52.670;13.544;2023-08-21T05:19:15;10.53;;;9.50;;
21334;SDS011;69435;52.670;13.544;2023-08-21T05:21:42;10.77;;;9.57;;
21334;SDS011;69435;52.670;13.544;2023-08-21T05:24:08;10.20;;;9.20;;
21334;SDS011;69435;52.670;13.544;2023-08-21T05:26:38;11.20;;;9.30;;
21334;SDS011;69435;52.670;13.544;2023-08-21T05:29:04;13.00;;;11.03;;
21334;SDS011;69435;52.670;13.544;2023-08-21T05:31:30;12.40;;;11.30;;
21334;SDS011;69435;52.670;13.544;2023-08-21T05:33:56;10.17;;;9.17;;
21334;SDS011;69435;52.670;13.544;2023-08-21T05:36:21;11.23;;;9.87;;
21334;SDS011;69435;52.670;13.544;2023-08-21T05:38:47;11.20;;;10.03;;
21334;SDS011;69435;52.670;13.544;2023-08-21T05:41:16;13.47;;;10.23;;
21334;SDS011;69435;52.670;13.544;2023-08-21T05:43:42;10.60;;;9.50;;
21334;SDS011;69435;52.670;13.544;2023-08-21T05:46:08;11.57;;;10.37;;
21334;SDS011;69435;52.670;13.544;2023-08-21T05:48:34;11.27;;;10.20;;
21334;SDS011;69435;52.670;13.544;2023-08-21T05:51:00;14.77;;;12.10;;
21334;SDS011;69435;52.670;13.544;2023-08-21T05:53:25;15.67;;;11.93;;
21334;SDS011;69435;52.670;13.544;2023-08-21T05:55:54;17.20;;;11.53;;
21334;SDS011;69435;52.670;13.544;2023-08-21T05:58:20;13.83;;;11.53;;
21334;SDS011;69435;52.670;13.544;2023-08-21T06:00:46;15.90;;;12.87;;
21334;SDS011;69435;52.670;13.544;2023-08-21T06:03:12;19.13;;;14.93;;
21334;SDS011;69435;52.670;13.544;2023-08-21T06:05:38;18.20;;;13.83;;
21334;SDS011;69435;52.670;13.544;2023-08-21T06:08:04;19.37;;;14.50;;
21334;SDS011;69435;52.670;13.544;2023-08-21T06:10:33;14.43;;;12.93;;
21334;SDS011;69435;52.670;13.544;2023-08-21T06:12:59;16.83;;;12.13;;
21334;SDS011;69435;52.670;13.544;2023-08-21T06:15:25;13.50;;;10.38;;
21334;SDS011;69435;52.670;13.544;2023-08-21T06:17:50;11.55;;;10.52;;
21334;SDS011;69435;52.670;13.544;2023-08-21T06:20:16;11.40;;;10.17;;
21334;SDS011;69435;52.670;13.544;2023-08-21T06:22:44;13.60;;;10.07;;
21334;SDS011;69435;52.670;13.544;2023-08-21T06:25:10;11.20;;;10.20;;
21334;SDS011;69435;52.670;13.544;2023-08-21T06:27:36;9.75;;;8.80;;
21334;SDS011;69435;52.670;13.544;2023-08-21T06:30:01;9.68;;;8.77;;
21334;SDS011;69435;52.670;13.544;2023-08-21T06:32:27;11.45;;;9.75;;
21334;SDS011;69435;52.670;13.544;2023-08-21T06:34:54;10.50;;;9.45;;
21334;SDS011;69435;52.670;13.544;2023-08-21T06:37:19;9.95;;;9.15;;
21334;SDS011;69435;52.670;13.544;2023-08-21T06:39:45;11.40;;;9.23;;
21334;SDS011;69435;52.670;13.544;2023-08-21T06:42:12;10.75;;;9.07;;
21334;SDS011;69435;52.670;13.544;2023-08-21T06:44:38;11.55;;;9.23;;
21334;SDS011;69435;52.670;13.544;2023-08-21T06:47:03;9.60;;;8.75;;
21334;SDS011;69435;52.670;13.544;2023-08-21T06:49:29;13.00;;;9.85;;
21334;SDS011;69435;52.670;13.544;2023-08-21T06:51:55;10.65;;;9.32;;
21334;SDS011;69435;52.670;13.544;2023-08-21T06:54:21;10.85;;;9.60;;
21334;SDS011;69435;52.670;13.544;2023-08-21T06:56:46;10.13;;;9.05;;
21334;SDS011;69435;52.670;13.544;2023-08-21T06:59:12;10.73;;;8.63;;
21334;SDS011;69435;52.670;13.544;2023-08-21T07:01:38;10.82;;;9.05;;
21334;SDS011;69435;52.670;13.544;2023-08-21T07:04:03;10.70;;;8.57;;
21334;SDS011;69435;52.670;13.544;2023-08-21T07:06:30;10.35;;;9.20;;
21334;SDS011;69435;52.670;13.544;2023-08-21T07:08:56;9.93;;;8.90;;
21334;SDS011;69435;52.670;13.544;2023-08-21T07:11:22;9.50;;;8.70;;
21334;SDS011;69435;52.670;13.544;2023-08-21T07:13:48;9.88;;;8.98;;
21334;SDS011;69435;52.670;13.544;2023-08-21T07:16:14;9.40;;;7.95;;
21334;SDS011;69435;52.670;13.544;2023-08-21T07:18:39;8.85;;;8.15;;
21334;SDS011;69435;52.670;13.544;2023-08-21T07:21:05;8.65;;;7.95;;
21334;SDS011;69435;52.670;13.544;2023-08-21T07:23:31;10.75;;;8.60;;
21334;SDS011;69435;52.670;13.544;2023-08-21T07:25:58;11.38;;;8.65;;
21334;SDS011;69435;52.670;13.544;2023-08-21T07:28:24;9.20;;;8.23;;
21334;SDS011;69435;52.670;13.544;2023-08-21T07:30:59;8.75;;;8.00;;
21334;SDS011;69435;52.670;13.544;2023-08-21T07:33:26;9.80;;;7.70;;
21334;SDS011;69435;52.670;13.544;2023-08-21T07:36:02;8.52;;;7.75;;
21334;SDS011;69435;52.670;13.544;2023-08-21T07:38:32;8.15;;;7.35;;
21334;SDS011;69435;52.670;13.544;2023-08-21T07:43:32;8.43;;;7.72;;
21334;SDS011;69435;52.670;13.544;2023-08-21T07:46:02;8.73;;;7.85;;
21334;SDS011;69435;52.670;13.544;2023-08-21T07:48:30;7.82;;;7.13;;
21334;SDS011;69435;52.670;13.544;2023-08-21T07:50:56;7.45;;;6.78;;
21334;SDS011;69435;52.670;13.544;2023-08-21T07:53:23;7.25;;;6.55;;
21334;SDS011;69435;52.670;13.544;2023-08-21T07:55:50;7.45;;;6.28;;
21334;SDS011;69435;52.670;13.544;2023-08-21T07:58:16;6.30;;;5.70;;
21334;SDS011;69435;52.670;13.544;2023-08-21T08:00:42;6.15;;;5.63;;
21334;SDS011;69435;52.670;13.544;2023-08-21T08:03:08;7.22;;;6.43;;
21334;SDS011;69435;52.670;13.544;2023-08-21T08:05:35;6.78;;;6.05;;
21334;SDS011;69435;52.670;13.544;2023-08-21T08:08:02;5.63;;;5.22;;
21334;SDS011;69435;52.670;13.544;2023-08-21T08:10:28;5.55;;;5.18;;
21334;SDS011;69435;52.670;13.544;2023-08-21T08:12:55;5.60;;;5.20;;
21334;SDS011;69435;52.670;13.544;2023-08-21T08:15:22;3.95;;;3.65;;
21334;SDS011;69435;52.670;13.544;2023-08-21T08:17:48;3.30;;;3.00;;
21334;SDS011;69435;52.670;13.544;2023-08-21T08:20:18;3.30;;;2.80;;
21334;SDS011;69435;52.670;13.544;2023-08-21T08:22:44;2.90;;;2.70;;
21334;SDS011;69435;52.670;13.544;2023-08-21T08:25:10;5.47;;;3.05;;
21334;SDS011;69435;52.670;13.544;2023-08-21T08:27:36;3.00;;;2.80;;
21334;SDS011;69435;52.670;13.544;2023-08-21T08:30:03;3.40;;;3.10;;
21334;SDS011;69435;52.670;13.544;2023-08-21T08:32:29;7.07;;;2.55;;
21334;SDS011;69435;52.670;13.544;2023-08-21T08:34:55;4.35;;;3.45;;
21334;SDS011;69435;52.670;13.544;2023-08-21T08:37:21;3.17;;;2.97;;
21334;SDS011;69435;52.670;13.544;2023-08-21T08:39:47;3.30;;;3.00;;
21334;SDS011;69435;52.670;13.544;2023-08-21T08:42:13;4.97;;;3.28;;
21334;SDS011;69435;52.670;13.544;2023-08-21T08:44:41;4.10;;;3.40;;
21334;SDS011;69435;52.670;13.544;2023-08-21T08:47:08;4.85;;;2.95;;
21334;SDS011;69435;52.670;13.544;2023-08-21T08:49:39;3.40;;;3.10;;
21334;SDS011;69435;52.670;13.544;2023-08-21T08:52:05;3.67;;;2.50;;
21334;SDS011;69435;52.670;13.544;2023-08-21T08:54:32;2.50;;;2.30;;
21334;SDS011;69435;52.670;13.544;2023-08-21T08:57:01;2.30;;;2.10;;
21334;SDS011;69435;52.670;13.544;2023-08-21T08:59:29;4.22;;;2.50;;
21334;SDS011;69435;52.670;13.544;2023-08-21T09:01:56;2.80;;;2.60;;
21334;SDS011;69435;52.670;13.544;2023-08-21T09:04:22;2.45;;;2.20;;
21334;SDS011;69435;52.670;13.544;2023-08-21T09:06:48;3.53;;;2.53;;
21334;SDS011;69435;52.670;13.544;2023-08-21T09:09:14;2.40;;;2.20;;
21334;SDS011;69435;52.670;13.544;2023-08-21T09:11:43;2.40;;;2.20;;
21334;SDS011;69435;52.670;13.544;2023-08-21T09:14:12;5.25;;;2.40;;
21334;SDS011;69435;52.670;13.544;2023-08-21T09:16:56;2.22;;;2.00;;
21334;SDS011;69435;52.670;13.544;2023-08-21T09:19:29;2.20;;;2.10;;
21334;SDS011;69435;52.670;13.544;2023-08-21T09:21:54;1.67;;;1.58;;
21334;SDS011;69435;52.670;13.544;2023-08-21T09:24:20;2.47;;;2.00;;
21334;SDS011;69435;52.670;13.544;2023-08-21T09:26:46;2.40;;;2.20;;
21334;SDS011;69435;52.670;13.544;2023-08-21T09:29:12;2.85;;;2.30;;
21334;SDS011;69435;52.670;13.544;2023-08-21T09:31:38;3.25;;;1.90;;
21334;SDS011;69435;52.670;13.544;2023-08-21T09:34:04;3.80;;;1.80;;
21334;SDS011;69435;52.670;13.544;2023-08-21T09:36:30;1.83;;;1.73;;
21334;SDS011;69435;52.670;13.544;2023-08-21T09:38:57;1.88;;;1.60;;
21334;SDS011;69435;52.670;13.544;2023-08-21T09:41:23;2.40;;;1.40;;
21334;SDS011;69435;52.670;13.544;2023-08-21T09:43:50;1.90;;;1.40;;
21334;SDS011;69435;52.670;13.544;2023-08-21T09:46:17;3.05;;;1.70;;
21334;SDS011;69435;52.670;13.544;2023-08-21T09:48:51;1.52;;;1.40;;
21334;SDS011;69435;52.670;13.544;2023-08-21T09:51:18;2.05;;;1.52;;
21334;SDS011;69435;52.670;13.544;2023-08-21T09:53:45;1.58;;;1.40;;
21334;SDS011;69435;52.670;13.544;2023-08-21T09:56:14;3.95;;;1.77;;
21334;SDS011;69435;52.670;13.544;2023-08-21T09:58:39;2.85;;;1.42;;
21334;SDS011;69435;52.670;13.544;2023-08-21T10:01:06;1.50;;;1.40;;
21334;SDS011;69435;52.670;13.544;2023-08-21T10:03:38;3.78;;;1.67;;
21334;SDS011;69435;52.670;13.544;2023-08-21T10:06:05;1.73;;;1.63;;
21334;SDS011;69435;52.670;13.544;2023-08-21T10:08:38;2.15;;;1.20;;
21334;SDS011;69435;52.670;13.544;2023-08-21T10:11:08;2.92;;;1.48;;
21334;SDS011;69435;52.670;13.544;2023-08-21T10:13:36;1.80;;;1.45;;
21334;SDS011;69435;52.670;13.544;2023-08-21T10:16:04;2.90;;;1.80;;
21334;SDS011;69435;52.670;13.544;2023-08-21T10:18:32;1.55;;;1.42;;
21334;SDS011;69435;52.670;13.544;2023-08-21T10:21:13;3.40;;;1.75;;
21334;SDS011;69435;52.670;13.544;2023-08-21T10:23:40;3.30;;;1.45;;
21334;SDS011;69435;52.670;13.544;2023-08-21T10:26:10;2.08;;;1.45;;
21334;SDS011;69435;52.670;13.544;2023-08-21T15:33:02;2.78;;;1.10;;
21334;SDS011;69435;52.670;13.544;2023-08-21T15:35:48;1.73;;;1.10;;
21334;SDS011;69435;52.670;13.544;2023-08-21T15:38:35;3.88;;;1.15;;
21334;SDS011;69435;52.670;13.544;2023-08-21T15:41:21;2.03;;;1.40;;
21334;SDS011;69435;52.670;13.544;2023-08-21T15:44:06;1.65;;;1.20;;
21334;SDS011;69435;52.670;13.544;2023-08-21T15:46:53;4.53;;;1.48;;
21334;SDS011;69435;52.670;13.544;2023-08-21T15:49:39;1.83;;;1.27;;
21334;SDS011;69435;52.670;13.544;2023-08-21T15:52:24;2.05;;;1.17;;
21334;SDS011;69435;52.670;13.544;2023-08-21T15:55:11;0.90;;;0.90;;
21334;SDS011;69435;52.670;13.544;2023-08-21T15:57:57;5.00;;;1.48;;
21334;SDS011;69435;52.670;13.544;2023-08-21T16:00:42;2.85;;;1.20;;
21334;SDS011;69435;52.670;13.544;2023-08-21T16:03:28;4.05;;;1.38;;
21334;SDS011;69435;52.670;13.544;2023-08-21T16:06:14;1.05;;;1.05;;
21334;SDS011;69435;52.670;13.544;2023-08-21T16:09:00;1.92;;;1.42;;
21334;SDS011;69435;52.670;13.544;2023-08-21T16:11:46;2.55;;;1.30;;
21334;SDS011;69435;52.670;13.544;2023-08-21T16:14:32;1.88;;;1.38;;
21334;SDS011;69435;52.670;13.544;2023-08-21T16:17:18;6.93;;;1.38;;
21334;SDS011;69435;52.670;13.544;2023-08-21T16:20:05;1.52;;;1.42;;
21334;SDS011;69435;52.670;13.544;2023-08-21T16:22:52;2.40;;;1.00;;
21334;SDS011;69435;52.670;13.544;2023-08-21T16:25:39;1.45;;;1.00;;
21334;SDS011;69435;52.670;13.544;2023-08-21T16:28:25;2.85;;;1.48;;
21334;SDS011;69435;52.670;13.544;2023-08-21T16:31:13;6.90;;;1.60;;
21334;SDS011;69435;52.670;13.544;2023-08-21T16:34:01;2.45;;;1.25;;
21334;SDS011;69435;52.670;13.544;2023-08-21T16:36:47;1.20;;;1.02;;
21334;SDS011;69435;52.670;13.544;2023-08-21T16:39:33;1.35;;;1.25;;
21334;SDS011;69435;52.670;13.544;2023-08-21T16:42:19;1.60;;;1.20;;
21334;SDS011;69435;52.670;13.544;2023-08-21T16:45:06;1.67;;;1.08;;
21334;SDS011;69435;52.670;13.544;2023-08-21T16:47:52;1.73;;;1.20;;
21334;SDS011;69435;52.670;13.544;2023-08-21T16:50:39;3.20;;;1.20;;
21334;SDS011;69435;52.670;13.544;2023-08-21T16:53:25;1.52;;;1.15;;
21334;SDS011;69435;52.670;13.544;2023-08-21T16:56:11;1.42;;;1.27;;
21334;SDS011;69435;52.670;13.544;2023-08-21T16:58:57;1.45;;;0.90;;
21334;SDS011;69435;52.670;13.544;2023-08-21T17:01:43;2.50;;;1.20;;
21334;SDS011;69435;52.670;13.544;2023-08-21T17:04:29;1.77;;;1.10;;
21334;SDS011;69435;52.670;13.544;2023-08-21T17:07:15;2.05;;;0.90;;
21334;SDS011;69435;52.670;13.544;2023-08-21T17:10:03;1.90;;;1.25;;
21334;SDS011;69435;52.670;13.544;2023-08-21T17:12:52;3.47;;;1.05;;
21334;SDS011;69435;52.670;13.544;2023-08-21T17:15:39;2.45;;;1.00;;
21334;SDS011;69435;52.670;13.544;2023-08-21T17:18:25;2.75;;;1.20;;
21334;SDS011;69435;52.670;13.544;2023-08-21T17:21:11;1.00;;;1.00;;
21334;SDS011;69435;52.670;13.544;2023-08-21T17:23:58;2.13;;;1.23;;
21334;SDS011;69435;52.670;13.544;2023-08-21T17:26:44;1.67;;;1.23;;
21334;SDS011;69435;52.670;13.544;2023-08-21T17:29:30;2.75;;;1.23;;
21334;SDS011;69435;52.670;13.544;2023-08-21T17:32:16;1.38;;;1.20;;
21334;SDS011;69435;52.670;13.544;2023-08-21T17:35:02;1.65;;;1.30;;
21334;SDS011;69435;52.670;13.544;2023-08-21T17:37:48;0.98;;;0.82;;
21334;SDS011;69435;52.670;13.544;2023-08-21T17:40:34;1.75;;;1.15;;
21334;SDS011;69435;52.670;13.544;2023-08-21T17:43:20;1.90;;;1.15;;
21334;SDS011;69435;52.670;13.544;2023-08-21T17:46:06;2.10;;;1.30;;
21334;SDS011;69435;52.670;13.544;2023-08-21T17:48:52;3.13;;;1.40;;
21334;SDS011;69435;52.670;13.544;2023-08-21T17:51:38;1.77;;;1.10;;
21334;SDS011;69435;52.670;13.544;2023-08-21T17:54:24;2.45;;;1.30;;
21334;SDS011;69435;52.670;13.544;2023-08-21T17:57:10;1.52;;;1.20;;
21334;SDS011;69435;52.670;13.544;2023-08-21T17:59:56;1.20;;;1.13;;
21334;SDS011;69435;52.670;13.544;2023-08-21T18:02:42;0.95;;;0.88;;
21334;SDS011;69435;52.670;13.544;2023-08-21T18:05:28;1.30;;;1.10;;
21334;SDS011;69435;52.670;13.544;2023-08-21T18:08:15;1.90;;;1.17;;
21334;SDS011;69435;52.670;13.544;2023-08-21T18:11:01;2.70;;;1.45;;
21334;SDS011;69435;52.670;13.544;2023-08-21T18:13:49;2.20;;;1.73;;
21334;SDS011;69435;52.670;13.544;2023-08-21T18:16:34;1.83;;;1.70;;
21334;SDS011;69435;52.670;13.544;2023-08-21T18:19:20;2.47;;;1.70;;
21334;SDS011;69435;52.670;13.544;2023-08-21T18:22:06;3.17;;;1.60;;
21334;SDS011;69435;52.670;13.544;2023-08-21T18:24:53;1.53;;;1.30;;
21334;SDS011;69435;52.670;13.544;2023-08-21T18:27:39;1.37;;;1.27;;
21334;SDS011;69435;52.670;13.544;2023-08-21T18:30:25;1.53;;;1.43;;
21334;SDS011;69435;52.670;13.544;2023-08-21T18:33:21;2.03;;;1.80;;
21334;SDS011;69435;52.670;13.544;2023-08-21T18:36:08;2.13;;;1.30;;
21334;SDS011;69435;52.670;13.544;2023-08-21T18:38:55;2.63;;;1.20;;
21334;SDS011;69435;52.670;13.544;2023-08-21T18:41:41;2.43;;;1.30;;
21334;SDS011;69435;52.670;13.544;2023-08-21T18:44:28;1.40;;;1.30;;
21334;SDS011;69435;52.670;13.544;2023-08-21T18:47:14;1.73;;;1.63;;
21334;SDS011;69435;52.670;13.544;2023-08-21T18:50:00;4.40;;;1.80;;
21334;SDS011;69435;52.670;13.544;2023-08-21T18:52:46;2.40;;;1.60;;
21334;SDS011;69435;52.670;13.544;2023-08-21T18:55:36;4.70;;;1.90;;
21334;SDS011;69435;52.670;13.544;2023-08-21T18:58:24;2.57;;;1.90;;
21334;SDS011;69435;52.670;13.544;2023-08-21T19:01:10;2.83;;;2.40;;
21334;SDS011;69435;52.670;13.544;2023-08-21T19:03:56;3.77;;;2.13;;
21334;SDS011;69435;52.670;13.544;2023-08-21T19:06:42;3.00;;;2.20;;
21334;SDS011;69435;52.670;13.544;2023-08-21T19:09:28;3.13;;;1.97;;
21334;SDS011;69435;52.670;13.544;2023-08-21T19:12:14;2.80;;;2.20;;
21334;SDS011;69435;52.670;13.544;2023-08-21T19:15:00;5.00;;;2.00;;
21334;SDS011;69435;52.670;13.544;2023-08-21T19:17:48;2.83;;;1.87;;
21334;SDS011;69435;52.670;13.544;2023-08-21T19:20:34;2.07;;;1.97;;
21334;SDS011;69435;52.670;13.544;2023-08-21T19:23:20;3.47;;;2.20;;
21334;SDS011;69435;52.670;13.544;2023-08-21T19:26:06;5.43;;;1.93;;
21334;SDS011;69435;52.670;13.544;2023-08-21T19:28:52;2.70;;;1.83;;
21334;SDS011;69435;52.670;13.544;2023-08-21T19:31:38;2.60;;;2.23;;
21334;SDS011;69435;52.670;13.544;2023-08-21T19:34:24;2.50;;;2.30;;
21334;SDS011;69435;52.670;13.544;2023-08-21T19:37:10;3.47;;;2.60;;
21334;SDS011;69435;52.670;13.544;2023-08-21T19:39:56;2.97;;;2.20;;
21334;SDS011;69435;52.670;13.544;2023-08-21T19:42:42;3.07;;;2.30;;
21334;SDS011;69435;52.670;13.544;2023-08-21T19:45:28;3.30;;;2.10;;
21334;SDS011;69435;52.670;13.544;2023-08-21T19:48:13;2.40;;;2.20;;
21334;SDS011;69435;52.670;13.544;2023-08-21T19:51:00;3.73;;;3.17;;
21334;SDS011;69435;52.670;13.544;2023-08-21T19:53:46;2.60;;;2.40;;
21334;SDS011;69435;52.670;13.544;2023-08-21T19:56:32;2.60;;;2.40;;
21334;SDS011;69435;52.670;13.544;2023-08-21T19:59:18;3.60;;;2.50;;
21334;SDS011;69435;52.670;13.544;2023-08-21T20:02:04;3.87;;;3.10;;
21334;SDS011;69435;52.670;13.544;2023-08-21T20:04:50;3.03;;;2.77;;